Latest Weather Observations for Dennes Point

IDT60801

Issued at 1:35 pm EDT Thursday 27 November 2014 (issued every 30 minutes, with the page automatically refreshed every 10 minutes)

About weather observations | Map of weather stations | Latest weather observations for TAS | Other Formats
Station Details ID: 094255 Name: DENNES POINT Lat: -43.06 Lon: 147.36 Height: 5.67 m
Data from the previous 72 hours. | See also: Recent months at Dennes Point
Date/Time
EDT
Temp
°C
App
Temp
°C
Dew
Point
Rel
Hum
%
Delta-T
°C
Wind Press
QNH
hPa
Press
MSL
hPa
Rain
since 9 am
mm
Dir
 
Spd
km/h
Gust
km/h
Spd
kts
Gust
kts
27/01:30pm 16.7 11.6 4.1 43 5.9 SW 20 30 11 16 1023.1 1023.1 0.0
27/01:00pm 16.9 12.4 4.3 43 5.9 SW 17 28 9 15 1023.2 1023.2 0.0
27/12:30pm 17.1 12.1 4.8 44 5.8 SW 20 28 11 15 1023.4 1023.4 0.0
27/12:00pm 16.1 10.3 4.5 46 5.4 SW 24 37 13 20 1023.4 1023.4 0.0
27/11:30am 16.5 11.5 3.6 42 6.0 SW 19 24 10 13 1023.5 1023.5 0.0
27/11:00am 15.1 10.5 3.9 47 5.1 SW 17 26 9 14 1023.7 1023.7 0.0
27/10:30am 13.7 8.3 4.6 54 4.2 SW 22 35 12 19 1023.8 1023.8 0.0
27/10:00am 13.3 7.8 4.2 54 4.1 WSW 22 28 12 15 1023.9 1023.9 0.0
27/09:30am 13.3 7.0 3.9 53 4.3 WSW 26 32 14 17 1023.8 1023.8 0.0
27/09:00am 13.1 7.5 3.7 53 4.2 WSW 22 33 12 18 1023.5 1023.5 0.6
27/08:30am 12.9 7.7 3.3 52 4.3 WSW 20 26 11 14 1023.3 1023.3 0.6
27/08:00am 12.2 7.3 3.9 57 3.7 WSW 19 28 10 15 1023.1 1023.1 0.6
27/07:30am 11.9 7.1 4.4 60 3.4 W 19 28 10 15 1023.0 1023.0 0.6
27/07:00am 11.4 6.6 4.4 62 3.1 WSW 19 24 10 13 1022.6 1022.6 0.6
27/06:30am 11.4 7.2 3.9 60 3.3 WSW 15 20 8 11 1022.3 1022.3 0.6
27/06:00am 11.0 6.5 4.0 62 3.1 WSW 17 20 9 11 1022.1 1022.1 0.6
27/05:30am 11.0 6.4 3.5 60 3.3 W 17 22 9 12 1021.6 1021.6 0.6
27/05:00am 10.7 5.7 3.5 61 3.1 WSW 19 26 10 14 1021.3 1021.3 0.6
27/04:30am 10.8 5.8 3.8 62 3.1 WSW 19 22 10 12 1021.0 1021.0 0.6
27/04:00am 10.9 5.8 4.1 63 3.0 W 20 24 11 13 1020.8 1020.8 0.6
27/03:30am 11.0 6.4 3.8 61 3.2 W 17 20 9 11 1020.7 1020.7 0.6
27/03:00am 11.0 6.7 3.3 59 3.4 W 15 20 8 11 1020.7 1020.7 0.6
27/02:30am 11.1 6.4 3.4 59 3.4 W 17 24 9 13 1020.8 1020.8 0.6
27/02:00am 11.2 6.7 4.0 61 3.2 WSW 17 28 9 15 1020.9 1020.9 0.6
27/01:30am 11.2 6.7 4.2 62 3.1 WSW 17 24 9 13 1020.9 1020.9 0.6
27/01:00am 11.4 6.6 4.8 64 3.0 W 19 22 10 12 1020.9 1020.9 0.6
27/12:30am 11.4 6.6 4.4 62 3.2 W 19 24 10 13 1021.0 1021.0 0.6
27/12:00am 11.5 7.5 4.7 63 3.1 W 15 20 8 11 1020.9 1020.9 0.6
 
Date/Time
EDT
Temp
°C
App
Temp
°C
Dew
Point
Rel
Hum
%
Delta-T
°C
Wind Press
QNH
hPa
Press
MSL
hPa
Rain
since 9 am
mm
Dir
 
Spd
km/h
Gust
km/h
Spd
kts
Gust
kts
26/11:30pm 11.6 6.8 4.8 63 3.1 WSW 19 24 10 13 1020.7 1020.7 0.6
26/11:00pm 11.6 6.8 4.6 62 3.2 WSW 19 26 10 14 1020.7 1020.7 0.6
26/10:30pm 11.8 7.0 4.8 62 3.2 WSW 19 26 10 14 1020.6 1020.6 0.6
26/10:00pm 11.8 6.5 5.0 63 3.1 W 22 30 12 16 1020.4 1020.4 0.6
26/09:30pm 11.9 5.4 4.6 61 3.3 W 28 35 15 19 1020.0 1020.0 0.6
26/09:00pm 12.0 5.1 4.7 61 3.3 WSW 30 39 16 21 1019.4 1019.4 0.6
26/08:30pm 12.2 4.7 4.4 59 3.5 WSW 33 43 18 23 1019.1 1019.1 0.6
26/08:00pm 12.4 4.9 4.4 58 3.6 WSW 33 44 18 24 1018.7 1018.7 0.6
26/07:55pm 12.4 3.8 4.4 58 3.6 WSW 39 57 21 31 1018.6 1018.6 0.6
26/07:30pm 13.3 5.3 5.7 60 3.6 WSW 37 48 20 26 1018.5 1018.5 0.6
26/07:00pm 13.5 5.9 4.1 53 4.3 WSW 33 46 18 25 1017.6 1017.6 0.6
26/06:30pm 14.7 8.0 5.8 55 4.2 WSW 30 41 16 22 1017.7 1017.7 0.6
26/06:14pm 15.2 7.9 5.4 52 4.6 WSW 33 52 18 28 1017.3 1017.3 0.6
26/06:00pm 15.1 7.5 5.6 53 4.5 WSW 35 46 19 25 1017.1 1017.1 0.6
26/05:30pm 15.3 8.3 5.8 53 4.5 WSW 32 41 17 22 1016.8 1016.8 0.6
26/05:21pm 15.3 7.9 5.2 51 4.8 WSW 33 52 18 28 1016.7 1016.7 0.6
26/05:19pm 15.4 7.7 5.3 51 4.8 WSW 35 52 19 28 1016.6 1016.6 0.6
26/05:00pm 15.8 11.3 7.1 56 4.3 SW 20 30 11 16 1016.8 1016.8 0.6
26/04:30pm 14.7 9.5 5.5 54 4.4 SW 22 30 12 16 1016.6 1016.6 0.6
26/04:00pm 13.8 9.5 7.8 67 3.0 SSW 20 33 11 18 1016.4 1016.4 0.6
26/03:30pm 15.7 11.0 6.2 53 4.6 SW 20 28 11 15 1016.2 1016.2 0.6
26/03:00pm 14.6 10.2 7.4 62 3.5 SW 20 32 11 17 1016.2 1016.2 0.6
26/02:30pm 13.8 10.1 8.0 68 2.9 SW 17 24 9 13 1016.0 1016.0 0.6
26/02:00pm 13.4 9.1 7.0 65 3.1 SW 19 32 10 17 1015.9 1015.9 0.4
26/01:30pm 15.0 8.7 5.8 54 4.4 SW 28 39 15 21 1015.5 1015.5 0.2
26/01:00pm 13.1 8.0 7.8 70 2.6 WSW 24 33 13 18 1015.4 1015.4 0.2
26/12:30pm 14.6 9.8 5.7 55 4.2 SW 20 32 11 17 1015.1 1015.1 0.0
26/12:00pm 13.5 8.0 9.0 74 2.3 WSW 28 41 15 22 1014.8 1014.8 0.0
26/11:30am 14.5 9.3 5.6 55 4.2 SW 22 33 12 18 1014.6 1014.6 0.0
26/11:00am 13.6 8.0 7.2 65 3.1 SW 26 37 14 20 1014.6 1014.6 0.0
26/10:30am 13.6 6.5 6.5 62 3.4 WSW 33 48 18 26 1014.3 1014.3 0.0
26/10:15am 13.4 5.2 4.8 56 4.0 WSW 37 56 20 30 1013.9 1013.9 0.0
26/10:00am 13.3 5.0 4.2 54 4.1 WSW 37 52 20 28 1013.6 1013.6 0.0
26/09:45am 13.3 6.0 4.7 56 4.0 WSW 32 50 17 27 1013.6 1013.6 0.0
26/09:30am 13.0 5.0 3.7 53 4.2 WSW 35 50 19 27 1013.2 1013.2 0.0
26/09:15am 14.2 6.7 4.2 51 4.6 WSW 33 52 18 28 1012.9 1012.9 0.0
26/09:00am 14.2 7.0 4.8 53 4.4 WSW 32 46 17 25 1012.7 1012.7 0.0
26/08:30am 13.3 4.3 4.5 55 4.0 W 41 57 22 31 1012.1 1012.1 0.0
26/08:00am 13.4 5.6 4.8 56 4.0 W 35 50 19 27 1011.7 1011.7 0.0
26/07:32am 12.4 3.3 3.9 56 3.8 W 41 67 22 36 1011.2 1011.2 0.0
26/07:30am 12.4 4.0 3.9 56 3.8 W 37 54 20 29 1011.2 1011.2 0.0
26/07:14am 12.3 4.7 4.0 57 3.7 W 33 57 18 31 1011.2 1011.2 0.0
26/07:00am 12.3 4.8 3.5 55 3.9 W 32 44 17 24 1011.3 1011.3 0.0
26/06:30am 11.8 4.1 3.3 56 3.7 W 33 43 18 23 1010.4 1010.4 0.0
26/06:00am 11.4 3.8 2.7 55 3.8 W 32 46 17 25 1010.4 1010.4 0.0
26/05:32am 11.5 3.9 3.8 59 3.4 W 33 52 18 28 1010.2 1010.2 0.0
26/05:30am 11.6 3.6 3.9 59 3.4 W 35 52 19 28 1010.1 1010.1 0.0
26/05:00am 12.1 4.7 5.0 62 3.3 W 33 54 18 29 1009.5 1009.5 0.0
26/04:57am 12.1 5.2 4.6 60 3.4 W 30 54 16 29 1009.4 1009.4 0.0
26/04:30am 11.9 5.4 4.9 62 3.2 WSW 28 39 15 21 1009.1 1009.1 0.0
26/04:01am 12.4 5.7 5.6 63 3.2 WSW 30 48 16 26 1008.6 1008.5 0.0
26/04:00am 12.4 6.0 5.3 62 3.3 WSW 28 43 15 23 1008.6 1008.5 0.0
26/03:52am 12.7 6.5 6.3 65 3.0 WSW 28 48 15 26 1008.8 1008.8 0.0
26/03:30am 12.9 8.8 6.3 64 3.1 W 17 24 9 13 1008.6 1008.5 0.0
26/03:00am 13.0 9.6 7.5 69 2.7 W 15 19 8 10 1008.4 1008.3 0.0
26/02:30am 13.1 8.8 7.8 70 2.6 W 20 35 11 19 1008.3 1008.2 0.0
26/02:00am 13.4 8.6 7.4 67 2.9 W 22 32 12 17 1008.4 1008.3 0.0
26/01:30am 13.5 10.7 7.1 65 3.1 NW 11 17 6 9 1008.2 1008.1 0.0
26/01:00am 13.4 9.1 7.0 65 3.1 N 19 24 10 13 1008.3 1008.2 0.0
26/12:30am 13.5 9.3 7.5 67 2.9 N 19 26 10 14 1008.7 1008.6 0.0
26/12:00am 13.3 9.2 6.4 63 3.3 N 17 26 9 14 1009.2 1009.2 0.0
 
Date/Time
EDT
Temp
°C
App
Temp
°C
Dew
Point
Rel
Hum
%
Delta-T
°C
Wind Press
QNH
hPa
Press
MSL
hPa
Rain
since 9 am
mm
Dir
 
Spd
km/h
Gust
km/h
Spd
kts
Gust
kts
25/11:30pm 13.2 10.2 5.9 61 3.4 NW 11 15 6 8 1009.8 1009.8 0.0
25/11:00pm 12.9 10.8 5.6 61 3.4 WNW 6 11 3 6 1010.3 1010.3 0.0
25/10:30pm 12.9 8.3 5.6 61 3.4 W 19 24 10 13 1010.4 1010.4 0.0
25/10:00pm 12.7 9.1 5.1 60 3.5 WNW 13 22 7 12 1010.6 1010.6 0.0
25/09:30pm 12.7 8.3 4.9 59 3.6 WNW 17 26 9 14 1010.6 1010.6 0.0
25/09:00pm 12.6 6.9 5.1 60 3.5 W 24 33 13 18 1010.4 1010.4 0.0
25/08:37pm 12.9 5.6 4.6 57 3.8 W 32 54 17 29 1010.1 1010.1 0.0
25/08:30pm 13.0 5.8 5.2 59 3.6 W 32 46 17 25 1010.2 1010.2 0.0
25/08:00pm 12.9 5.5 4.8 58 3.7 W 33 43 18 23 1010.0 1010.0 0.0
25/07:30pm 13.6 5.7 4.5 54 4.2 W 35 48 19 26 1009.8 1009.8 0.0
25/07:00pm 13.6 5.8 4.7 55 4.1 W 35 46 19 25 1009.5 1009.5 0.0
25/06:30pm 13.0 4.3 6.1 63 3.3 W 41 52 22 28 1009.2 1009.2 0.0
25/06:00pm 14.1 5.9 4.7 53 4.4 W 37 50 20 27 1008.8 1008.8 0.0
25/05:31pm 15.4 4.8 5.0 50 4.9 W 50 69 27 37 1008.3 1008.2 0.0
25/05:30pm 15.3 4.2 4.4 48 5.1 W 52 69 28 37 1008.3 1008.2 0.0
25/05:00pm 14.5 4.6 6.6 59 3.8 WSW 48 63 26 34 1008.4 1008.3 0.0
25/04:42pm 13.4 4.2 6.5 63 3.3 WSW 44 65 24 35 1008.2 1008.1 0.0
25/04:30pm 12.9 3.3 8.0 72 2.4 W 48 59 26 32 1008.2 1008.1 0.0
25/04:17pm 13.1 2.4 8.0 71 2.5 WSW 54 74 29 40 1007.8 1007.7 0.0
25/04:15pm 13.4 1.4 6.7 64 3.2 WSW 59 74 32 40 1007.6 1007.5 0.0
25/04:01pm 14.3 6.8 6.4 59 3.8 W 35 54 19 29 1007.6 1007.5 0.0
25/04:00pm 14.3 6.9 6.9 61 3.6 W 35 46 19 25 1007.7 1007.6 0.0
25/03:30pm 16.4 7.6 7.9 57 4.3 W 44 59 24 32 1007.6 1007.5 0.0
25/03:00pm 15.8 6.8 6.5 54 4.5 W 43 57 23 31 1007.2 1007.1 0.0
25/02:30pm 14.6 5.2 8.8 68 2.9 W 48 69 26 37 1007.0 1006.9 0.0
25/02:09pm 17.1 8.3 5.7 47 5.5 W 41 61 22 33 1006.3 1006.2 0.0
25/02:00pm 17.2 8.0 5.5 46 5.7 W 43 56 23 30 1006.3 1006.2 0.0
25/01:30pm 17.3 8.3 6.5 49 5.3 W 43 63 23 34 1006.3 1006.2 0.0
25/01:00pm 17.2 9.2 5.8 47 5.6 W 37 69 20 37 1006.1 1006.0 0.0
25/12:44pm 16.4 8.9 6.2 51 5.0 W 35 59 19 32 1006.3 1006.2 0.0
25/12:30pm 16.0 8.1 6.4 53 4.7 W 37 50 20 27 1006.3 1006.2 0.0
25/12:00pm 17.0 8.0 6.2 49 5.3 W 43 57 23 31 1006.3 1006.2 0.0
25/11:30am 16.3 6.5 5.3 48 5.3 W 46 63 25 34 1006.1 1006.0 0.0
25/11:13am 16.0 7.1 5.3 49 5.1 WSW 41 61 22 33 1005.8 1005.7 0.0
25/11:00am 15.7 6.0 5.6 51 4.8 WSW 46 59 25 32 1006.0 1005.9 0.0
25/10:30am 14.9 5.0 4.6 50 4.8 WSW 46 69 25 37 1006.0 1005.9 0.0
25/10:04am 15.7 9.4 5.9 52 4.7 W 28 52 15 28 1005.9 1005.8 0.0
25/10:00am 15.4 10.2 5.6 52 4.7 W 22 30 12 16 1006.0 1005.9 0.0
25/09:46am 15.0 6.3 5.8 54 4.4 WSW 41 61 22 33 1005.8 1005.7 0.0
25/09:30am 13.8 5.3 5.2 56 4.0 W 39 52 21 28 1005.5 1005.4 0.0
25/09:00am 14.3 6.3 5.9 57 4.0 W 37 59 20 32 1005.1 1005.0 2.6
25/08:56am 13.9 5.2 6.0 59 3.8 WSW 41 59 22 32 1005.1 1005.0 2.6
25/08:30am 13.5 4.4 6.1 61 3.5 W 43 56 23 30 1004.6 1004.5 2.6
25/08:00am 13.6 4.8 5.5 58 3.8 WSW 41 61 22 33 1004.0 1003.9 2.6
25/07:30am 13.1 3.8 5.0 58 3.7 WSW 43 65 23 35 1003.3 1003.2 2.6
25/07:21am 13.4 4.6 5.6 59 3.7 WSW 41 59 22 32 1003.1 1003.0 2.6
25/07:00am 12.9 4.1 5.6 61 3.4 WSW 41 57 22 31 1002.5 1002.4 2.6
25/06:30am 12.6 4.3 6.2 65 3.0 WSW 39 52 21 28 1002.1 1002.0 2.6
25/06:00am 12.3 3.5 5.7 64 3.1 WSW 41 54 22 29 1001.4 1001.4 2.6
25/05:47am 12.2 4.2 5.8 65 3.0 W 37 63 20 34 1000.9 1000.9 2.6
25/05:30am 12.2 5.1 6.3 67 2.8 W 33 44 18 24 1001.0 1001.0 2.6
25/05:00am 12.0 4.8 6.1 67 2.8 W 33 44 18 24 1000.8 1000.8 2.6
25/04:38am 12.4 6.0 5.1 61 3.4 W 28 48 15 26 1000.6 1000.6 2.6
25/04:30am 12.4 6.4 5.1 61 3.4 W 26 44 14 24 1000.5 1000.5 2.6
25/04:25am 12.7 5.5 4.9 59 3.6 WSW 32 44 17 24 1000.5 1000.5 2.6
25/04:00am 12.9 10.5 5.1 59 3.6 W 7 15 4 8 1000.4 1000.4 2.6
25/03:30am 12.9 9.7 5.1 59 3.6 NNW 11 17 6 9 1000.6 1000.6 2.6
25/03:00am 13.0 8.1 4.9 58 3.8 WNW 20 30 11 16 1000.7 1000.7 2.6
25/02:30am 13.0 7.8 5.7 61 3.4 W 22 32 12 17 1000.6 1000.6 2.6
25/02:00am 12.5 8.2 5.2 61 3.4 W 17 22 9 12 1000.8 1000.8 2.6
25/01:30am 12.5 6.8 4.7 59 3.6 WNW 24 44 13 24 1000.7 1000.7 2.6
25/01:00am 12.4 7.9 4.1 57 3.8 WNW 17 24 9 13 1000.7 1000.7 2.6
25/12:30am 12.4 7.6 4.9 60 3.4 WNW 19 24 10 13 1001.1 1001.1 2.6
25/12:00am 12.3 7.3 4.5 59 3.6 WNW 20 30 11 16 1001.6 1001.6 2.6
 
Date/Time
EDT
Temp
°C
App
Temp
°C
Dew
Point
Rel
Hum
%
Delta-T
°C
Wind Press
QNH
hPa
Press
MSL
hPa
Rain
since 9 am
mm
Dir
 
Spd
km/h
Gust
km/h
Spd
kts
Gust
kts
24/11:30pm 12.5 7.0 4.2 57 3.8 WNW 22 33 12 18 1001.7 1001.7 2.6
24/11:00pm 12.6 6.1 4.6 58 3.7 WNW 28 35 15 19 1001.9 1001.9 2.6
24/10:30pm 12.9 5.7 5.1 59 3.6 W 32 44 17 24 1002.1 1002.0 2.6
24/10:00pm 12.8 6.4 5.0 59 3.6 W 28 35 15 19 1002.2 1002.1 2.6
24/09:30pm 13.1 8.0 6.0 62 3.4 WNW 22 26 12 14 1002.2 1002.1 2.6
24/09:00pm 13.4 9.2 5.6 59 3.7 W 17 28 9 15 1002.2 1002.1 2.6
24/08:30pm 13.8 7.7 6.4 61 3.5 W 28 39 15 21 1002.1 1002.0 2.6
24/08:00pm 14.2 7.1 8.2 67 3.0 W 35 44 19 24 1001.5 1001.5 2.6
24/07:30pm 14.1 11.2 9.7 75 2.3 W 15 26 8 14 1001.3 1001.3 2.6
24/07:00pm 13.7 12.3 12.1 90 0.9 WSW 11 19 6 10 1001.4 1001.4 2.6
24/06:30pm 14.3 14.9 13.0 92 0.7 WNW 2 7 1 4 1001.2 1001.2 2.2
24/06:00pm 14.5 12.7 13.4 93 0.6 N 15 20 8 11 1001.4 1001.4 1.8
24/05:30pm 14.2 12.6 12.9 92 0.7 N 13 15 7 8 1001.6 1001.6 1.8
24/05:00pm 14.1 13.6 12.5 90 0.9 NNE 7 9 4 5 1002.1 1002.0 1.4
24/04:30pm 14.2 12.9 12.6 90 0.9 N 11 13 6 7 1002.5 1002.4 1.2
24/04:00pm 14.4 11.9 12.3 87 1.1 N 17 20 9 11 1003.1 1003.0 0.4
24/03:30pm 15.2 12.5 11.8 80 1.8 NNW 17 20 9 11 1002.7 1002.6 0.0
24/03:00pm 15.4 12.7 11.8 79 2.0 N 17 20 9 11 1003.1 1003.0 0.0
24/02:30pm 15.5 13.2 11.7 78 2.1 N 15 20 8 11 1003.7 1003.6 0.0
24/02:00pm 15.4 11.5 10.8 74 2.4 N 22 30 12 16 1004.3 1004.2 0.0

Other Formats:

Comma delimited format used in spreadsheet applications
http://www.bom.gov.au/fwo/IDT60801/IDT60801.94988.axf

JavaScript Object Notation format (JSON) in row-major order
http://www.bom.gov.au/fwo/IDT60801/IDT60801.94988.json